Time;durP1;ratioP1;P1;durP2;ratioP2;P2;SDS_P1;SDS_P2;PMS_P1;PMS_P2;Temp;Humidity;BMP_temperature;BMP_pressure;BME280_temperature;BME280_humidity;BME280_pressure;Samples;Min_cycle;Max_cycle;Signal;HPM_P1;HPM_P2
2021/06/21 00:01:32;;;;;;;;;;;;;;;16.90;100.00;99920.56;5113086;28;20282;-71
2021/06/21 00:03:57;;;;;;;;;;;;;;;16.86;100.00;99917.44;5113050;28;20362;-71
2021/06/21 00:06:23;;;;;;;;;;;;;;;16.84;100.00;99910.66;5113456;28;20256;-71
2021/06/21 00:08:48;;;;;;;;;;;;;;;16.84;100.00;99911.53;5113131;28;20370;-71
2021/06/21 00:11:14;;;;;;;;;;;;;;;16.76;100.00;99907.06;5112926;28;20332;-71
2021/06/21 00:13:39;;;;;;;;;;;;;;;16.60;100.00;99896.53;5113060;28;19912;-71
2021/06/21 00:16:05;;;;;;;;;;;;;;;16.38;100.00;99905.28;5112972;28;19915;-71
2021/06/21 00:18:30;;;;;;;;;;;;;;;16.29;100.00;99905.28;5112997;28;19960;-71
2021/06/21 00:20:56;;;;;;;;;;;;;;;16.18;100.00;99905.66;5113199;28;20382;-71
2021/06/21 00:23:21;;;;;;;;;;;;;;;16.02;100.00;99897.78;5112686;28;19912;-71
2021/06/21 00:25:47;;;;;;;;;;;;;;;15.89;100.00;99906.22;5095067;28;19950;-71
2021/06/21 00:28:13;;;;;;;;;;;;;;;15.82;100.00;99898.16;5114069;28;20358;-71
2021/06/21 00:30:38;;;;;;;;;;;;;;;15.67;100.00;99896.38;5117155;28;20014;-71
2021/06/21 00:33:04;;;;;;;;;;;;;;;15.73;100.00;99888.63;5116790;28;20378;-71
2021/06/21 00:35:29;;;;;;;;;;;;;;;15.96;100.00;99893.16;5117518;28;20371;-71
2021/06/21 00:37:57;;;;;;;;;;;;;;;15.99;100.00;99893.66;5116600;28;19926;-71
2021/06/21 00:40:23;;;;;;;;;;;;;;;15.92;100.00;99897.16;5099139;28;19919;-71
2021/06/21 00:42:48;;;;;;;;;;;;;;;15.87;100.00;99888.91;5116404;28;20344;-71
2021/06/21 00:45:16;;;;;;;;;;;;;;;15.89;100.00;99895.66;5116461;28;19912;-71
2021/06/21 00:47:41;;;;;;;;;;;;;;;15.92;100.00;99886.56;5098382;28;19916;-72
2021/06/21 00:50:07;;;;;;;;;;;;;;;15.86;100.00;99892.53;5116501;28;19984;-71
2021/06/21 00:52:32;;;;;;;;;;;;;;;15.79;100.00;99893.22;5116403;28;19912;-71
2021/06/21 00:55:01;;;;;;;;;;;;;;;15.75;100.00;99894.53;5098087;28;19916;-71
2021/06/21 00:57:27;;;;;;;;;;;;;;;15.69;100.00;99899.66;5116327;28;19912;-71
2021/06/21 00:59:53;;;;;;;;;;;;;;;15.63;100.00;99892.41;5116004;28;20002;-71
2021/06/21 01:02:21;;;;;;;;;;;;;;;15.58;100.00;99890.25;5116516;28;19912;-71
2021/06/21 01:04:46;;;;;;;;;;;;;;;15.51;100.00;99890.09;5116558;28;19911;-71
2021/06/21 01:07:12;;;;;;;;;;;;;;;15.58;100.00;99884.97;5116223;28;19960;-71
2021/06/21 01:09:37;;;;;;;;;;;;;;;15.70;100.00;99888.94;5116421;28;19912;-71
2021/06/21 01:12:08;;;;;;;;;;;;;;;15.82;100.00;99887.59;5116109;28;19912;-71
2021/06/21 01:14:40;;;;;;;;;;;;;;;15.98;100.00;99876.16;5116347;28;19920;-71
2021/06/21 01:17:06;;;;;;;;;;;;;;;16.04;100.00;99870.19;5116260;28;19915;-71
2021/06/21 01:19:49;;;;;;;;;;;;;;;16.20;100.00;99871.13;5115851;28;20368;-71
2021/06/21 01:22:52;;;;;;;;;;;;;;;16.28;100.00;99866.63;5115976;28;19919;-71
2021/06/21 01:25:23;;;;;;;;;;;;;;;16.41;100.00;99870.56;5115573;28;20291;-71
2021/06/21 01:27:52;;;;;;;;;;;;;;;16.50;100.00;99861.56;5115765;28;20447;-71
2021/06/21 01:30:36;;;;;;;;;;;;;;;16.53;100.00;99864.66;5115997;28;20285;-71
2021/06/21 01:33:01;;;;;;;;;;;;;;;16.61;100.00;99865.66;5115627;28;20099;-71
2021/06/21 01:35:33;;;;;;;;;;;;;;;16.67;100.00;99865.78;5115853;28;19955;-71
2021/06/21 01:37:59;;;;;;;;;;;;;;;16.58;100.00;99866.81;5115513;28;19919;-71
2021/06/21 01:40:27;;;;;;;;;;;;;;;16.64;100.00;99870.59;5115136;28;20010;-71
2021/06/21 01:42:58;;;;;;;;;;;;;;;16.58;100.00;99876.56;5115595;28;19958;-71
2021/06/21 01:45:23;;;;;;;;;;;;;;;16.64;100.00;99871.41;5115434;28;20389;-71
2021/06/21 01:47:49;;;;;;;;;;;;;;;16.70;100.00;99875.97;5115373;28;19912;-71
2021/06/21 01:50:18;;;;;;;;;;;;;;;16.62;100.00;99873.41;5097079;28;19911;-71
2021/06/21 01:52:43;;;;;;;;;;;;;;;16.67;100.00;99876.34;5115528;28;19912;-71
2021/06/21 01:55:11;;;;;;;;;;;;;;;16.75;100.00;99872.88;5115345;28;19919;-71
2021/06/21 01:57:36;;;;;;;;;;;;;;;16.82;100.00;99873.00;5115225;28;19912;-71
2021/06/21 02:00:06;;;;;;;;;;;;;;;16.89;100.00;99871.28;5096610;28;19918;-71
2021/06/21 02:02:32;;;;;;;;;;;;;;;16.69;100.00;99879.63;5115543;28;19916;-71
2021/06/21 02:04:59;;;;;;;;;;;;;;;16.43;100.00;99873.81;5115182;28;20010;-71
2021/06/21 02:07:25;;;;;;;;;;;;;;;16.39;100.00;99876.00;5114944;28;19999;-71
2021/06/21 02:09:51;;;;;;;;;;;;;;;16.26;100.00;99879.19;5114793;28;19918;-71
2021/06/21 02:12:21;;;;;;;;;;;;;;;16.25;100.00;99876.72;5114849;28;19912;-71
2021/06/21 02:14:49;;;;;;;;;;;;;;;16.24;100.00;99880.38;5114855;28;19954;-71
2021/06/21 02:17:15;;;;;;;;;;;;;;;16.16;100.00;99880.38;5114872;28;19919;-71
2021/06/21 02:19:40;;;;;;;;;;;;;;;16.07;100.00;99879.59;5114683;28;19911;-71
2021/06/21 02:22:06;;;;;;;;;;;;;;;15.96;100.00;99874.66;5114643;28;20006;-71
2021/06/21 02:24:33;;;;;;;;;;;;;;;15.97;100.00;99871.88;5114817;28;20495;-71
2021/06/21 02:26:58;;;;;;;;;;;;;;;15.94;100.00;99868.75;5114522;28;19941;-71
2021/06/21 02:29:26;;;;;;;;;;;;;;;15.92;100.00;99870.72;5114507;28;19917;-71
2021/06/21 02:31:51;;;;;;;;;;;;;;;15.85;100.00;99875.84;5114676;28;19911;-71
2021/06/21 02:34:18;;;;;;;;;;;;;;;15.83;100.00;99875.22;5114508;28;19918;-71
2021/06/21 02:36:43;;;;;;;;;;;;;;;15.87;100.00;99881.00;5114454;28;20371;-71
2021/06/21 02:39:10;;;;;;;;;;;;;;;15.92;100.00;99890.03;5114192;28;19967;-71
2021/06/21 02:41:36;;;;;;;;;;;;;;;16.03;100.00;99878.28;5114080;28;19919;-71
2021/06/21 02:44:03;;;;;;;;;;;;;;;16.18;100.00;99876.59;5114618;28;20374;-71
2021/06/21 02:46:28;;;;;;;;;;;;;;;16.27;100.00;99877.38;5114248;28;19912;-71
2021/06/21 02:48:54;;;;;;;;;;;;;;;16.45;100.00;99871.84;5114878;28;20271;-71
2021/06/21 02:51:22;;;;;;;;;;;;;;;16.56;100.00;99875.91;5114338;28;20341;-71
2021/06/21 02:54:00;;;;;;;;;;;;;;;16.64;100.00;99879.34;5114316;28;20394;-71
2021/06/21 02:56:37;;;;;;;;;;;;;;;16.72;100.00;99875.81;5113988;28;19935;-71
2021/06/21 02:59:05;;;;;;;;;;;;;;;16.68;100.00;99872.72;5114356;28;19935;-71
2021/06/21 03:01:31;;;;;;;;;;;;;;;16.71;100.00;99867.06;5113956;28;19915;-71
2021/06/21 03:03:57;;;;;;;;;;;;;;;16.74;100.00;99872.03;5114029;28;19911;-71
2021/06/21 03:06:24;;;;;;;;;;;;;;;16.85;100.00;99872.63;5113780;28;19963;-71
2021/06/21 03:08:51;;;;;;;;;;;;;;;16.90;100.00;99864.97;5113825;28;19911;-71
2021/06/21 03:11:17;;;;;;;;;;;;;;;16.91;100.00;99866.66;5113998;28;19958;-71
2021/06/21 03:13:47;;;;;;;;;;;;;;;17.00;100.00;99868.22;5114117;28;19939;-71
2021/06/21 03:16:13;;;;;;;;;;;;;;;16.95;100.00;99866.09;5112728;28;19915;-71
2021/06/21 03:18:40;;;;;;;;;;;;;;;16.89;100.00;99858.06;5113916;28;20002;-71
2021/06/21 03:21:05;;;;;;;;;;;;;;;16.80;100.00;99851.16;5113630;28;19911;-71
2021/06/21 03:23:32;;;;;;;;;;;;;;;16.85;100.00;99867.34;5113555;28;19918;-71
2021/06/21 03:25:58;;;;;;;;;;;;;;;16.89;100.00;99863.34;5113650;28;19934;-71
2021/06/21 03:28:24;;;;;;;;;;;;;;;17.07;100.00;99860.38;5113783;28;19927;-71
2021/06/21 03:30:51;;;;;;;;;;;;;;;17.21;100.00;99879.00;5113488;28;19911;-71
2021/06/21 03:33:16;;;;;;;;;;;;;;;17.40;100.00;99880.31;5113398;28;20362;-71
2021/06/21 03:35:42;;;;;;;;;;;;;;;17.57;100.00;99877.50;5113478;28;19919;-71
2021/06/21 03:38:20;;;;;;;;;;;;;;;17.55;100.00;99888.31;5113132;28;19911;-71
2021/06/21 03:40:47;;;;;;;;;;;;;;;17.62;100.00;99888.41;5114018;28;19922;-70
2021/06/21 03:43:13;;;;;;;;;;;;;;;17.68;100.00;99879.72;5113111;28;19915;-71
2021/06/21 03:45:39;;;;;;;;;;;;;;;17.73;100.00;99882.66;5113475;28;20349;-71
2021/06/21 03:48:04;;;;;;;;;;;;;;;17.82;100.00;99873.66;5113195;28;19947;-71
2021/06/21 03:50:29;;;;;;;;;;;;;;;17.89;100.00;99874.56;5095013;28;20362;-70
2021/06/21 03:52:55;;;;;;;;;;;;;;;17.89;100.00;99879.88;5112876;28;20015;-71
2021/06/21 03:55:20;;;;;;;;;;;;;;;17.98;100.00;99885.88;5112988;28;20394;-71
2021/06/21 03:57:46;;;;;;;;;;;;;;;18.06;100.00;99888.47;5113290;28;19915;-71
2021/06/21 04:00:16;;;;;;;;;;;;;;;18.14;100.00;99884.88;5113304;28;19911;-71
2021/06/21 04:02:42;;;;;;;;;;;;;;;18.24;100.00;99895.22;5113319;28;19912;-71
2021/06/21 04:05:08;;;;;;;;;;;;;;;18.03;100.00;99888.00;5117283;28;19993;-71
2021/06/21 04:07:33;;;;;;;;;;;;;;;17.76;100.00;99889.44;5117935;28;19915;-71
2021/06/21 04:09:59;;;;;;;;;;;;;;;17.79;100.00;99897.06;5116836;28;20439;-71
2021/06/21 04:12:25;;;;;;;;;;;;;;;17.88;100.00;99893.28;5116907;28;20405;-71
2021/06/21 04:14:50;;;;;;;;;;;;;;;18.05;100.00;99886.78;5115584;28;19911;-71
2021/06/21 04:17:16;;;;;;;;;;;;;;;18.11;100.00;99879.94;5116097;28;19919;-71
2021/06/21 04:19:41;;;;;;;;;;;;;;;18.40;100.00;99884.41;5116240;28;19912;-72
2021/06/21 04:22:06;;;;;;;;;;;;;;;18.75;100.00;99881.97;5116265;28;19912;-72
2021/06/21 04:24:32;;;;;;;;;;;;;;;18.96;100.00;99884.63;5116336;28;19912;-72
2021/06/21 04:26:57;;;;;;;;;;;;;;;19.19;100.00;99878.31;5116310;28;19911;-72
2021/06/21 04:29:23;;;;;;;;;;;;;;;19.34;100.00;99876.41;5116587;28;19965;-72
2021/06/21 04:31:49;;;;;;;;;;;;;;;19.63;100.00;99875.41;5116702;28;19947;-72
2021/06/21 04:34:14;;;;;;;;;;;;;;;19.95;100.00;99884.63;5116515;28;19911;-72
2021/06/21 04:36:39;;;;;;;;;;;;;;;19.99;100.00;99880.56;5117587;28;20321;-72
2021/06/21 04:39:05;;;;;;;;;;;;;;;20.27;100.00;99885.00;5098438;28;20416;-72
2021/06/21 04:41:30;;;;;;;;;;;;;;;20.43;100.00;99886.50;5116672;28;19918;-72
2021/06/21 04:43:55;;;;;;;;;;;;;;;20.43;100.00;99882.00;5082164;28;19920;-72
2021/06/21 04:46:23;;;;;;;;;;;;;;;20.70;100.00;99882.13;5096293;28;19915;-72
2021/06/21 04:48:49;;;;;;;;;;;;;;;20.76;100.00;99881.31;5096003;28;19912;-72
2021/06/21 04:51:15;;;;;;;;;;;;;;;20.85;100.00;99884.59;5096058;28;19936;-72
2021/06/21 04:53:41;;;;;;;;;;;;;;;21.22;100.00;99885.88;5096040;28;19912;-72
2021/06/21 04:56:06;;;;;;;;;;;;;;;21.52;100.00;99888.16;5096474;28;20385;-72
2021/06/21 04:58:34;;;;;;;;;;;;;;;21.84;100.00;99895.31;5095937;28;19912;-72
2021/06/21 05:01:00;;;;;;;;;;;;;;;22.18;100.00;99882.75;5095995;28;19954;-72
2021/06/21 05:03:26;;;;;;;;;;;;;;;22.52;100.00;99880.75;5095877;28;19920;-72
2021/06/21 05:05:51;;;;;;;;;;;;;;;22.84;100.00;99882.41;5096329;28;19984;-72
2021/06/21 05:08:16;;;;;;;;;;;;;;;22.80;100.00;99889.22;5095779;28;20436;-72
2021/06/21 05:10:42;;;;;;;;;;;;;;;22.83;100.00;99888.78;5095727;28;19912;-72
2021/06/21 05:13:08;;;;;;;;;;;;;;;22.83;100.00;99887.97;5095484;28;19960;-72
2021/06/21 05:15:34;;;;;;;;;;;;;;;22.80;100.00;99889.22;5094413;28;19945;-72
2021/06/21 05:17:59;;;;;;;;;;;;;;;22.65;100.00;99887.88;5095481;28;19912;-72
2021/06/21 05:20:24;;;;;;;;;;;;;;;22.73;100.00;99888.44;5095433;28;20010;-72
2021/06/21 05:22:51;;;;;;;;;;;;;;;22.86;100.00;99888.38;5095915;28;20053;-72
2021/06/21 05:25:17;;;;;;;;;;;;;;;22.78;100.00;99891.31;5095453;28;19919;-72
2021/06/21 05:27:42;;;;;;;;;;;;;;;22.74;100.00;99889.25;5095620;28;19916;-72
2021/06/21 05:30:08;;;;;;;;;;;;;;;22.87;100.00;99895.34;5095516;28;20003;-72
2021/06/21 05:32:35;;;;;;;;;;;;;;;22.96;100.00;99892.47;5095163;28;19946;-72
2021/06/21 05:35:00;;;;;;;;;;;;;;;22.93;100.00;99888.34;5095467;28;20338;-72
2021/06/21 05:37:25;;;;;;;;;;;;;;;23.07;100.00;99894.44;5095080;28;20011;-72
2021/06/21 05:39:51;;;;;;;;;;;;;;;23.19;100.00;99892.72;5095228;28;19919;-72
2021/06/21 05:42:18;;;;;;;;;;;;;;;23.44;100.00;99910.59;5097401;28;20283;-72
2021/06/21 05:44:43;;;;;;;;;;;;;;;;;;5115658;28;19912;-72
2021/06/21 05:47:08;;;;;;;;;;;;;;;23.18;100.00;99908.94;5115395;28;19919;-72
2021/06/21 05:49:34;;;;;;;;;;;;;;;22.46;100.00;99908.31;5115275;28;19920;-71
2021/06/21 05:51:59;;;;;;;;;;;;;;;22.77;100.00;99912.88;5115108;28;19921;-72
2021/06/21 05:54:24;;;;;;;;;;;;;;;23.02;100.00;99912.97;5115647;28;20311;-72
2021/06/21 05:56:50;;;;;;;;;;;;;;;23.16;100.00;99919.88;5115725;28;19911;-72
2021/06/21 05:59:15;;;;;;;;;;;;;;;23.72;100.00;99905.63;5115270;28;19916;-72
2021/06/21 06:01:40;;;;;;;;;;;;;;;23.98;100.00;99922.47;5115164;28;19912;-72
2021/06/21 06:04:06;;;;;;;;;;;;;;;23.96;100.00;99929.91;5114967;28;19912;-72
2021/06/21 06:06:31;;;;;;;;;;;;;;;24.08;100.00;99920.09;5115417;28;19911;-72
2021/06/21 06:08:56;;;;;;;;;;;;;;;24.25;100.00;99923.81;5115270;28;19919;-72
2021/06/21 06:11:22;;;;;;;;;;;;;;;24.22;100.00;99918.91;5114848;28;19943;-72
2021/06/21 06:13:47;;;;;;;;;;;;;;;24.41;100.00;99902.88;5114836;28;19912;-72
2021/06/21 06:16:13;;;;;;;;;;;;;;;24.76;100.00;99902.22;5115004;28;19911;-72
2021/06/21 06:18:38;;;;;;;;;;;;;;;25.02;100.00;99896.47;5114724;28;19920;-72
2021/06/21 06:21:04;;;;;;;;;;;;;;;25.30;100.00;99909.28;5114621;28;19911;-72
2021/06/21 06:23:29;;;;;;;;;;;;;;;25.55;100.00;99909.09;5114481;28;19942;-72
2021/06/21 06:25:54;;;;;;;;;;;;;;;25.65;100.00;99912.00;5114563;28;19962;-72
2021/06/21 06:28:20;;;;;;;;;;;;;;;25.76;100.00;99912.25;5114516;28;20288;-72
2021/06/21 06:30:45;;;;;;;;;;;;;;;26.16;100.00;99909.66;5114606;28;19959;-72
2021/06/21 06:33:10;;;;;;;;;;;;;;;26.19;100.00;99903.81;5114371;28;19968;-72
2021/06/21 06:35:36;;;;;;;;;;;;;;;26.18;100.00;99902.16;5114505;28;19988;-73
2021/06/21 06:38:01;;;;;;;;;;;;;;;26.10;100.00;99905.22;5114376;28;20427;-72
2021/06/21 06:40:26;;;;;;;;;;;;;;;26.32;100.00;99908.09;5114722;28;19912;-72
2021/06/21 06:42:54;;;;;;;;;;;;;;;26.12;100.00;99906.63;5114296;28;19922;-72
2021/06/21 06:45:20;;;;;;;;;;;;;;;26.04;100.00;99908.84;5114349;28;19917;-72
2021/06/21 06:47:45;;;;;;;;;;;;;;;26.11;100.00;99898.78;5114146;28;20456;-72
2021/06/21 06:50:11;;;;;;;;;;;;;;;26.53;100.00;99909.38;5114180;28;19918;-72
2021/06/21 06:52:37;;;;;;;;;;;;;;;26.20;100.00;99908.13;5114129;28;19912;-72
2021/06/21 06:57:46;;;;;;;;;;;;;;;26.20;100.00;99908.13;5114477;28;20015;-72
2021/06/21 07:00:13;;;;;;;;;;;;;;;26.66;100.00;99908.25;5113830;28;20320;-72
2021/06/21 07:02:41;;;;;;;;;;;;;;;26.73;100.00;99903.53;5114047;28;19911;-72
2021/06/21 07:05:07;;;;;;;;;;;;;;;27.02;100.00;99921.28;5113755;28;19918;-72
2021/06/21 07:07:32;;;;;;;;;;;;;;;27.18;100.00;99913.53;5113892;28;19912;-73
2021/06/21 07:09:57;;;;;;;;;;;;;;;27.36;100.00;99907.88;5113848;28;19969;-72
2021/06/21 07:12:23;;;;;;;;;;;;;;;27.43;100.00;99905.84;5113693;28;19912;-72
2021/06/21 07:14:48;;;;;;;;;;;;;;;27.68;100.00;99921.59;5113642;28;19923;-72
2021/06/21 07:17:14;;;;;;;;;;;;;;;27.09;100.00;99911.19;5113730;28;19968;-72
2021/06/21 07:19:40;;;;;;;;;;;;;;;27.27;100.00;99912.88;5113671;28;19912;-72
2021/06/21 07:22:05;;;;;;;;;;;;;;;27.01;100.00;99911.59;5113651;28;19912;-72
2021/06/21 07:24:30;;;;;;;;;;;;;;;26.96;100.00;99916.84;5113553;28;20279;-72
2021/06/21 07:26:56;;;;;;;;;;;;;;;27.48;100.00;99914.00;5113545;28;19916;-72
2021/06/21 07:29:21;;;;;;;;;;;;;;;27.70;100.00;99913.25;5113552;28;19915;-73
2021/06/21 07:31:47;;;;;;;;;;;;;;;27.84;100.00;99917.25;5113462;28;19919;-73
2021/06/21 07:34:12;;;;;;;;;;;;;;;27.63;100.00;99909.91;5113378;28;19919;-72
2021/06/21 07:36:38;;;;;;;;;;;;;;;28.07;100.00;99915.41;5113375;28;20259;-73
2021/06/21 07:39:04;;;;;;;;;;;;;;;28.17;100.00;99921.75;5112722;28;20370;-72
2021/06/21 07:41:29;;;;;;;;;;;;;;;28.13;100.00;99919.81;5113171;28;20298;-73
2021/06/21 07:43:55;;;;;;;;;;;;;;;28.35;100.00;99920.63;5113756;28;19915;-73
2021/06/21 07:46:21;;;;;;;;;;;;;;;28.83;100.00;99919.03;5113336;28;19916;-72
2021/06/21 07:48:46;;;;;;;;;;;;;;;29.14;100.00;99924.75;5113239;28;19920;-73
2021/06/21 07:51:13;;;;;;;;;;;;;;;29.13;100.00;99918.53;5113125;28;19918;-73
2021/06/21 07:53:39;;;;;;;;;;;;;;;28.59;100.00;99926.59;5113243;28;19912;-73
2021/06/21 07:56:05;;;;;;;;;;;;;;;28.58;100.00;99932.22;5113261;28;19995;-73
2021/06/21 07:58:31;;;;;;;;;;;;;;;29.10;100.00;99923.63;5113179;28;19912;-73
2021/06/21 08:00:57;;;;;;;;;;;;;;;29.33;100.00;99928.69;5113363;28;19919;-73
2021/06/21 08:03:23;;;;;;;;;;;;;;;29.40;100.00;99928.47;5113820;28;19911;-73
2021/06/21 08:05:50;;;;;;;;;;;;;;;29.79;100.00;99930.94;5113078;28;19911;-73
2021/06/21 08:08:15;;;;;;;;;;;;;;;29.61;100.00;99929.47;5113178;28;19919;-73
2021/06/21 08:10:40;;;;;;;;;;;;;;;29.66;90.83;99926.78;5113038;28;19911;-73
2021/06/21 08:13:06;;;;;;;;;;;;;;;29.97;88.00;99927.81;5112952;28;19925;-73
2021/06/21 08:15:31;;;;;;;;;;;;;;;30.32;81.12;99931.78;5112990;28;19911;-73
2021/06/21 08:17:57;;;;;;;;;;;;;;;30.28;64.40;99928.81;5113483;28;19926;-73
2021/06/21 08:20:22;;;;;;;;;;;;;;;30.52;59.87;99929.16;5112818;28;19912;-72
2021/06/21 08:22:48;;;;;;;;;;;;;;;30.18;56.02;99944.97;5112990;28;19911;-73
2021/06/21 08:25:13;;;;;;;;;;;;;;;30.37;57.95;99936.38;5113020;28;20413;-73
2021/06/21 08:27:38;;;;;;;;;;;;;;;30.50;60.03;99933.19;5113010;28;19916;-73
2021/06/21 08:30:05;;;;;;;;;;;;;;;30.71;59.78;99937.59;5112787;28;19962;-73
2021/06/21 08:32:31;;;;;;;;;;;;;;;30.90;54.79;99948.75;5112685;28;20298;-73
2021/06/21 08:34:56;;;;;;;;;;;;;;;30.26;56.17;99944.47;5112854;28;19979;-73
2021/06/21 08:37:22;;;;;;;;;;;;;;;29.99;56.41;99949.16;5112549;28;19912;-73
2021/06/21 08:39:48;;;;;;;;;;;;;;;29.87;54.95;99947.47;5112786;28;19918;-73
2021/06/21 08:42:13;;;;;;;;;;;;;;;29.71;56.65;99943.03;5112417;28;20002;-73
2021/06/21 08:44:41;;;;;;;;;;;;;;;28.91;57.77;99948.22;5112751;28;19916;-72
2021/06/21 08:47:08;;;;;;;;;;;;;;;28.77;61.20;99949.72;5112771;28;20403;-73
2021/06/21 08:49:34;;;;;;;;;;;;;;;28.76;61.69;99955.38;5114007;28;20397;-72
2021/06/21 08:52:00;;;;;;;;;;;;;;;28.15;60.91;99950.00;5116306;28;19998;-72
2021/06/21 08:54:26;;;;;;;;;;;;;;;28.34;65.31;99940.53;5116399;28;19916;-73
2021/06/21 08:56:57;;;;;;;;;;;;;;;28.81;61.54;99936.53;5116402;28;20335;-72
2021/06/21 08:59:22;;;;;;;;;;;;;;;28.67;60.03;99934.22;5116928;28;19968;-73
2021/06/21 09:01:47;;;;;;;;;;;;;;;28.63;61.61;99943.09;5116700;28;19915;-73
2021/06/21 09:04:13;;;;;;;;;;;;;;;28.61;65.77;99937.94;5116325;28;19918;-72
2021/06/21 09:06:39;;;;;;;;;;;;;;;28.00;62.25;99940.63;5116339;28;20344;-73
2021/06/21 09:09:05;;;;;;;;;;;;;;;28.65;63.05;99936.38;5116147;28;19954;-73
2021/06/21 09:11:45;;;;;;;;;;;;;;;28.68;61.80;99941.25;5097662;28;20390;-73
2021/06/21 09:14:28;;;;;;;;;;;;;;;29.09;61.41;99932.78;5116016;28;19912;-72
2021/06/21 09:16:56;;;;;;;;;;;;;;;29.35;59.01;99941.91;5115945;28;19959;-73
2021/06/21 09:19:22;;;;;;;;;;;;;;;29.60;59.97;99938.66;5116070;28;19961;-73
2021/06/21 09:21:47;;;;;;;;;;;;;;;29.48;57.29;99936.09;5115976;28;20336;-73
2021/06/21 09:24:18;;;;;;;;;;;;;;;29.64;55.61;99928.97;5116063;28;20424;-73
2021/06/21 09:26:45;;;;;;;;;;;;;;;29.95;57.22;99929.16;5115733;28;19911;-73
2021/06/21 09:29:10;;;;;;;;;;;;;;;30.15;60.22;99934.66;5115734;28;19923;-73
2021/06/21 09:31:50;;;;;;;;;;;;;;;30.12;57.31;99929.78;5115532;28;19916;-73
2021/06/21 09:34:17;;;;;;;;;;;;;;;30.08;56.83;99928.69;5115646;28;19922;-73
2021/06/21 09:36:42;;;;;;;;;;;;;;;29.89;55.61;99931.00;5115375;28;20374;-73
2021/06/21 09:39:14;;;;;;;;;;;;;;;29.83;56.06;99932.84;5115331;28;19919;-73
2021/06/21 09:41:40;;;;;;;;;;;;;;;30.01;57.87;99930.81;5115592;28;19947;-73
2021/06/21 09:44:05;;;;;;;;;;;;;;;30.12;57.02;99935.19;5115505;28;19947;-72
2021/06/21 09:46:30;;;;;;;;;;;;;;;30.28;53.97;99928.00;5115531;28;19968;-73
2021/06/21 09:48:55;;;;;;;;;;;;;;;30.16;55.55;99932.75;5115406;28;19916;-73
2021/06/21 09:51:23;;;;;;;;;;;;;;;30.44;57.28;99928.84;5115354;28;19918;-73
2021/06/21 09:53:57;;;;;;;;;;;;;;;30.19;54.99;99924.97;5115745;28;19912;-73
2021/06/21 09:56:32;;;;;;;;;;;;;;;30.10;57.67;99927.34;5115340;28;19912;-73
2021/06/21 09:58:58;;;;;;;;;;;;;;;30.22;58.01;99926.34;5115270;28;20011;-73
2021/06/21 10:01:30;;;;;;;;;;;;;;;29.82;56.81;99920.41;5114571;28;20379;-73
2021/06/21 10:03:55;;;;;;;;;;;;;;;29.15;57.40;99920.97;5115155;28;20004;-73
2021/06/21 10:06:21;;;;;;;;;;;;;;;29.17;56.41;99925.06;5115266;28;19969;-72
2021/06/21 10:08:52;;;;;;;;;;;;;;;29.56;57.83;99926.69;5114875;28;20386;-72
2021/06/21 10:11:37;;;;;;;;;;;;;;;29.79;57.28;99914.72;5114960;28;19912;-73
2021/06/21 10:14:10;;;;;;;;;;;;;;;30.06;58.36;99909.19;5114813;28;19947;-72
2021/06/21 10:16:35;;;;;;;;;;;;;;;30.10;55.40;99911.13;5115250;28;19933;-73
2021/06/21 10:19:01;;;;;;;;;;;;;;;29.64;56.11;99913.56;5114889;28;20370;-73
2021/06/21 10:21:27;;;;;;;;;;;;;;;30.01;54.49;99912.69;5114694;28;19919;-72
2021/06/21 10:23:53;;;;;;;;;;;;;;;29.61;53.87;99918.69;5114685;28;19912;-73
2021/06/21 10:26:19;;;;;;;;;;;;;;;29.84;58.43;99907.47;5114720;28;19919;-74
2021/06/21 10:28:44;;;;;;;;;;;;;;;30.01;57.12;99906.50;5115220;28;19969;-73
2021/06/21 10:31:10;;;;;;;;;;;;;;;30.09;56.31;99904.09;5114663;28;19912;-73
2021/06/21 10:33:35;;;;;;;;;;;;;;;29.98;58.30;99897.00;5114490;28;20366;-73
2021/06/21 10:36:03;;;;;;;;;;;;;;;29.51;53.98;99899.69;5114639;28;19998;-72
2021/06/21 10:38:28;;;;;;;;;;;;;;;29.54;54.72;99915.34;5114147;28;19911;-73
2021/06/21 10:40:59;;;;;;;;;;;;;;;29.38;55.01;99912.53;5114455;28;19968;-73
2021/06/21 10:43:43;;;;;;;;;;;;;;;29.51;57.21;99913.19;5114111;28;20006;-73
2021/06/21 10:46:14;;;;;;;;;;;;;;;29.64;57.70;99908.16;5114255;28;19912;-73
2021/06/21 10:48:58;;;;;;;;;;;;;;;29.71;57.89;99910.63;5114186;28;20362;-73
2021/06/21 10:51:30;;;;;;;;;;;;;;;29.54;57.57;99905.38;5114132;28;19968;-73
2021/06/21 10:53:56;;;;;;;;;;;;;;;29.65;59.54;99900.88;5114131;28;20294;-73
2021/06/21 10:56:40;;;;;;;;;;;;;;;29.78;55.40;99902.31;5113919;28;19912;-73
2021/06/21 10:59:18;;;;;;;;;;;;;;;30.04;56.99;99908.66;5114053;28;19916;-73
2021/06/21 11:01:51;;;;;;;;;;;;;;;30.07;53.57;99900.00;5113969;28;19947;-73
2021/06/21 11:04:46;;;;;;;;;;;;;;;29.97;54.06;99899.97;5114205;28;19923;-73
2021/06/21 11:07:11;;;;;;;;;;;;;;;30.28;58.79;99906.38;5091979;28;19911;-73
2021/06/21 11:09:47;;;;;;;;;;;;;;;30.52;54.96;99904.00;5113813;28;19969;-73
2021/06/21 11:12:22;;;;;;;;;;;;;;;30.69;53.17;99903.78;5113232;28;19912;-73
2021/06/21 11:15:09;;;;;;;;;;;;;;;30.68;55.79;99904.84;5113194;28;19911;-72
2021/06/21 11:17:50;;;;;;;;;;;;;;;30.80;54.77;99905.44;5113706;28;19912;-73
2021/06/21 11:20:34;;;;;;;;;;;;;;;30.72;55.96;99909.47;5113624;28;19915;-74
2021/06/21 11:23:00;;;;;;;;;;;;;;;30.84;51.74;99901.13;5114093;28;19935;-74
2021/06/21 11:25:42;;;;;;;;;;;;;;;30.95;51.74;99907.34;5113567;28;20032;-73
2021/06/21 11:28:28;;;;;;;;;;;;;;;30.78;52.07;99905.72;5113705;28;19968;-74
2021/06/21 11:31:13;;;;;;;;;;;;;;;30.00;52.86;99904.84;5095856;28;19960;-72
2021/06/21 11:33:51;;;;;;;;;;;;;;;29.29;56.93;99897.88;5113959;28;19912;-72
2021/06/21 11:36:35;;;;;;;;;;;;;;;29.68;56.06;99892.25;5113717;28;19920;-73
2021/06/21 11:39:19;;;;;;;;;;;;;;;29.23;58.29;99896.25;5113177;28;19912;-72
2021/06/21 11:41:54;;;;;;;;;;;;;;;29.14;64.33;99892.38;5113333;28;19919;-71
2021/06/21 11:47:22;;;;;;;;;;;;;;;28.62;74.49;99899.16;5113376;28;20011;-71
2021/06/21 11:49:51;;;;;;;;;;;;;;;28.40;77.99;99893.78;5113247;28;19945;-71
2021/06/21 11:52:19;;;;;;;;;;;;;;;27.74;77.18;99887.47;5113196;28;19915;-72
2021/06/21 11:54:45;;;;;;;;;;;;;;;28.09;77.18;99891.75;5113186;28;20306;-72
2021/06/21 11:57:10;;;;;;;;;;;;;;;28.19;73.29;99881.09;5113409;28;19945;-71
2021/06/21 11:59:37;;;;;;;;;;;;;;;28.12;70.38;99877.78;5113333;28;20012;-70
2021/06/21 12:02:05;;;;;;;;;;;;;;;27.80;72.69;99867.66;5113243;28;20354;-71
2021/06/21 12:04:30;;;;;;;;;;;;;;;27.51;73.39;99859.72;5113044;28;20416;-71
2021/06/21 12:06:56;;;;;;;;;;;;;;;28.10;67.23;99863.75;5113162;28;19962;-71
2021/06/21 12:09:21;;;;;;;;;;;;;;;28.41;70.30;99868.44;5113389;28;19912;-72
2021/06/21 12:11:51;;;;;;;;;;;;;;;28.70;65.31;99849.34;5112907;28;19912;-71
2021/06/21 12:14:19;;;;;;;;;;;;;;;28.56;66.40;99858.91;5113025;28;20309;-72
2021/06/21 12:16:44;;;;;;;;;;;;;;;28.63;63.48;99862.22;5113035;28;19995;-72
2021/06/21 12:19:09;;;;;;;;;;;;;;;28.89;65.39;99853.31;5113217;28;20057;-72
2021/06/21 12:21:37;;;;;;;;;;;;;;;28.90;65.47;99852.22;5113003;28;19912;-72
2021/06/21 12:24:21;;;;;;;;;;;;;;;29.23;55.81;99852.22;5113575;28;20374;-72
2021/06/21 12:26:47;;;;;;;;;;;;;;;29.48;58.96;99854.31;5116963;28;19915;-72
2021/06/21 12:29:24;;;;;;;;;;;;;;;29.70;57.77;99849.63;5116999;28;19912;-72
2021/06/21 12:31:58;;;;;;;;;;;;;;;29.87;56.08;99846.72;5117107;28;19919;-72
2021/06/21 12:34:41;;;;;;;;;;;;;;;29.76;52.29;99851.25;5116596;28;19918;-72
2021/06/21 12:37:11;;;;;;;;;;;;;;;30.07;54.71;99840.56;5116930;28;19915;-72
2021/06/21 12:39:36;;;;;;;;;;;;;;;29.92;55.48;99840.53;5098428;28;19915;-71
2021/06/21 12:42:06;;;;;;;;;;;;;;;30.04;56.63;99852.75;5116706;28;19916;-72
2021/06/21 12:44:32;;;;;;;;;;;;;;;30.27;58.75;99851.50;5098744;28;19965;-72
2021/06/21 12:46:57;;;;;;;;;;;;;;;29.82;54.62;99844.81;5116819;28;19912;-72
2021/06/21 12:49:24;;;;;;;;;;;;;;;30.07;57.21;99848.69;5116591;28;19919;-72